createdAt,value
2019-02-06T00:02:02.753Z,101940.94
2019-02-06T00:04:32.377Z,101946.09
2019-02-06T00:07:01.917Z,101937.06
2019-02-06T00:09:31.448Z,101936.64
2019-02-06T00:12:01.004Z,101934.48
2019-02-06T00:14:30.593Z,101937.94
2019-02-06T00:17:00.743Z,101932.78
2019-02-06T00:19:30.300Z,101924.59
2019-02-06T00:21:59.864Z,101926.30
2019-02-06T00:24:29.387Z,101931.46
2019-02-06T00:26:58.947Z,101919.88
2019-02-06T00:29:28.498Z,101919.00
2019-02-06T00:31:58.346Z,101916.42
2019-02-06T00:34:28.141Z,101913.02
2019-02-06T00:36:57.697Z,101904.42
2019-02-06T00:39:27.253Z,101907.91
2019-02-06T00:41:56.910Z,101903.58
2019-02-06T00:44:26.450Z,101900.18
2019-02-06T00:46:56.160Z,101890.30
2019-02-06T00:49:25.725Z,101885.16
2019-02-06T00:51:55.277Z,101879.14
2019-02-06T00:54:24.833Z,101875.27
2019-02-06T00:56:54.401Z,101876.12
2019-02-06T00:59:24.199Z,101872.25
2019-02-06T01:01:53.910Z,101870.98
2019-02-06T01:04:23.597Z,101874.86
2019-02-06T01:06:53.225Z,101881.74
2019-02-06T01:09:22.833Z,101883.48
2019-02-06T01:11:52.620Z,101880.49
2019-02-06T01:14:22.224Z,101878.33
2019-02-06T01:16:51.899Z,101879.64
2019-02-06T01:19:21.411Z,101880.50
2019-02-06T01:21:50.932Z,101874.49
2019-02-06T01:24:20.506Z,101873.59
2019-02-06T01:26:50.039Z,101865.43
2019-02-06T01:29:19.582Z,101867.59
2019-02-06T01:31:49.461Z,101866.74
2019-02-06T01:34:19.061Z,101869.75
2019-02-06T01:36:48.634Z,101870.61
2019-02-06T01:39:18.167Z,101868.48
2019-02-06T01:41:47.669Z,101865.89
2019-02-06T01:44:17.222Z,101867.17
2019-02-06T01:46:47.070Z,101868.47
2019-02-06T01:49:16.623Z,101866.77
2019-02-06T01:51:46.166Z,101860.77
2019-02-06T01:54:15.718Z,101856.03
2019-02-06T01:56:45.254Z,101858.20
2019-02-06T01:59:14.800Z,101863.34
2019-02-06T02:01:44.860Z,101859.92
2019-02-06T02:04:14.411Z,101862.05
2019-02-06T02:06:43.928Z,101860.34
2019-02-06T02:09:15.186Z,101858.20
2019-02-06T02:11:44.771Z,101857.34
2019-02-06T02:14:14.381Z,101848.72
2019-02-06T02:16:44.192Z,101841.40
2019-02-06T02:19:13.730Z,101839.70
2019-02-06T02:21:43.276Z,101831.08
2019-02-06T02:24:12.819Z,101832.80
2019-02-06T02:26:42.367Z,101829.38
2019-02-06T02:29:12.968Z,101820.33
2019-02-06T02:31:42.816Z,101819.03
2019-02-06T02:34:12.321Z,101813.86
2019-02-06T02:36:41.935Z,101808.27
2019-02-06T02:39:11.458Z,101799.66
2019-02-06T02:41:41.136Z,101796.20
2019-02-06T02:44:10.666Z,101798.36
2019-02-06T02:46:40.411Z,101796.20
2019-02-06T02:49:09.961Z,101790.20
2019-02-06T02:51:39.563Z,101785.89
2019-02-06T02:54:14.510Z,101785.05
2019-02-06T02:56:44.065Z,101785.47
2019-02-06T02:59:13.640Z,101776.00
2019-02-06T03:01:44.907Z,101776.41
2019-02-06T03:04:16.075Z,101770.83
2019-02-06T03:06:47.311Z,101766.95
2019-02-06T03:09:16.854Z,101760.50
2019-02-06T03:11:46.406Z,101753.16
2019-02-06T03:14:16.130Z,101752.32
2019-02-06T03:16:45.663Z,101745.84
2019-02-06T03:19:15.200Z,101744.13
2019-02-06T03:21:44.744Z,101746.28
2019-02-06T03:24:14.356Z,101737.67
2019-02-06T03:26:43.877Z,101736.38
2019-02-06T03:29:13.604Z,101738.09
2019-02-06T03:31:43.153Z,101739.39
2019-02-06T03:34:12.681Z,101726.91
2019-02-06T03:36:42.260Z,101726.47
2019-02-06T03:39:11.802Z,101715.72
2019-02-06T03:41:41.345Z,101713.98
2019-02-06T03:44:11.149Z,101703.23
2019-02-06T03:46:40.693Z,101706.67
2019-02-06T03:49:10.231Z,101709.26
2019-02-06T03:51:39.760Z,101698.08
2019-02-06T03:54:09.321Z,101699.34
2019-02-06T03:56:39.015Z,101702.80
2019-02-06T03:59:08.922Z,101706.25
2019-02-06T04:01:38.461Z,101698.06
2019-02-06T04:04:08.045Z,101693.74
2019-02-06T04:06:37.832Z,101690.75
2019-02-06T04:09:08.806Z,101685.59
2019-02-06T04:11:38.334Z,101682.13
2019-02-06T04:14:11.055Z,101687.30
2019-02-06T04:16:40.605Z,101689.45
2019-02-06T04:19:10.155Z,101682.14
2019-02-06T04:21:40.399Z,101679.55
2019-02-06T04:24:09.910Z,101677.84
2019-02-06T04:26:39.451Z,101678.69
2019-02-06T04:29:09.010Z,101667.06
2019-02-06T04:31:38.552Z,101665.78
2019-02-06T04:34:08.086Z,101663.61
2019-02-06T04:36:37.636Z,101661.91
2019-02-06T04:39:08.609Z,101654.59
2019-02-06T04:41:38.542Z,101643.80
2019-02-06T04:44:08.154Z,101650.71
2019-02-06T04:46:37.717Z,101644.25
2019-02-06T04:49:07.236Z,101645.11
2019-02-06T04:51:36.779Z,101645.09
2019-02-06T04:54:06.546Z,101648.13
2019-02-06T04:56:36.352Z,101641.23
2019-02-06T04:59:07.488Z,101638.20
2019-02-06T05:01:37.044Z,101639.52
2019-02-06T05:04:06.604Z,101641.67
2019-02-06T05:06:36.484Z,101637.78
2019-02-06T05:09:07.753Z,101644.25
2019-02-06T05:11:37.653Z,101643.81
2019-02-06T05:14:07.273Z,101648.09
2019-02-06T05:16:36.823Z,101638.20
2019-02-06T05:19:06.482Z,101643.39
2019-02-06T05:21:35.977Z,101639.49
2019-02-06T05:24:06.250Z,101644.66
2019-02-06T05:26:36.122Z,101632.60
2019-02-06T05:29:07.285Z,101633.47
2019-02-06T05:31:36.836Z,101634.31
2019-02-06T05:34:06.451Z,101626.13
2019-02-06T05:36:36.006Z,101628.72
2019-02-06T05:39:07.967Z,101615.81
2019-02-06T05:44:39.931Z,101617.95
2019-02-06T05:47:09.503Z,101611.09
2019-02-06T05:49:39.337Z,101602.90
2019-02-06T05:52:08.878Z,101600.74
2019-02-06T05:54:40.030Z,101590.84
2019-02-06T05:57:09.641Z,101589.55
2019-02-06T05:59:39.189Z,101586.56
2019-02-06T06:02:08.734Z,101587.85
2019-02-06T06:04:38.531Z,101579.25
2019-02-06T06:07:08.141Z,101594.31
2019-02-06T06:09:37.680Z,101583.11
2019-02-06T06:12:07.282Z,101584.84
2019-02-06T06:14:36.874Z,101579.67
2019-02-06T06:17:06.430Z,101577.95
2019-02-06T06:19:35.986Z,101574.94
2019-02-06T06:22:06.979Z,101571.05
2019-02-06T06:24:37.578Z,101573.22
2019-02-06T06:27:07.169Z,101574.50
2019-02-06T06:29:36.973Z,101576.64
2019-02-06T06:32:06.517Z,101577.07
2019-02-06T06:34:36.152Z,101582.66
2019-02-06T06:37:06.959Z,101571.47
2019-02-06T06:39:36.487Z,101569.75
2019-02-06T06:42:06.038Z,101572.75
2019-02-06T06:44:35.574Z,101572.31
2019-02-06T06:47:05.192Z,101570.17
2019-02-06T06:49:34.760Z,101571.01
2019-02-06T06:52:04.433Z,101577.91
2019-02-06T06:54:33.956Z,101580.92
2019-02-06T06:57:03.576Z,101579.61
2019-02-06T06:59:33.175Z,101569.71
2019-02-06T07:02:02.727Z,101563.25
2019-02-06T07:04:32.559Z,101563.67
2019-02-06T07:07:02.127Z,101554.16
2019-02-06T07:09:31.692Z,101549.45
2019-02-06T07:12:01.513Z,101542.13
2019-02-06T07:14:31.053Z,101537.80
2019-02-06T07:17:00.608Z,101533.48
2019-02-06T07:19:31.948Z,101528.33
2019-02-06T07:22:01.478Z,101533.48
2019-02-06T07:24:31.055Z,101538.64
2019-02-06T07:27:06.346Z,101537.77
2019-02-06T07:29:35.839Z,101540.73
2019-02-06T07:32:07.921Z,101554.11
2019-02-06T07:34:37.496Z,101566.13
2019-02-06T07:37:08.209Z,101566.13
2019-02-06T07:39:37.765Z,101559.19
2019-02-06T07:42:07.329Z,101568.67
2019-02-06T07:44:37.121Z,101563.94
2019-02-06T07:47:07.129Z,101563.50
2019-02-06T07:49:36.667Z,101564.77
2019-02-06T07:52:09.351Z,101564.36
2019-02-06T07:54:38.883Z,101569.52
2019-02-06T07:57:09.440Z,101566.94
2019-02-06T07:59:38.973Z,101565.65
2019-02-06T08:02:08.923Z,101564.34
2019-02-06T08:04:41.413Z,101571.65
2019-02-06T08:07:12.014Z,101561.72
2019-02-06T08:09:41.622Z,101563.03
2019-02-06T08:12:11.169Z,101563.88
2019-02-06T08:14:40.718Z,101564.70
2019-02-06T08:17:10.524Z,101558.19
2019-02-06T08:19:40.061Z,101559.45
2019-02-06T08:22:09.599Z,101562.00
2019-02-06T08:24:39.215Z,101560.64
2019-02-06T08:27:08.797Z,101553.67
2019-02-06T08:29:38.337Z,101551.97
2019-02-06T08:32:08.126Z,101549.33
2019-02-06T08:34:37.715Z,101547.58
2019-02-06T08:37:08.383Z,101544.11
2019-02-06T08:39:39.370Z,101542.80
2019-02-06T08:42:08.947Z,101537.14
2019-02-06T08:44:38.507Z,101534.52
2019-02-06T08:47:08.388Z,101528.44
2019-02-06T08:49:37.972Z,101522.78
2019-02-06T08:52:07.588Z,101518.01
2019-02-06T08:54:37.143Z,101524.43
2019-02-06T08:57:06.807Z,101524.38
2019-02-06T08:59:36.405Z,101526.94
2019-02-06T09:02:06.076Z,101526.02
2019-02-06T09:04:35.592Z,101526.91
2019-02-06T09:07:05.529Z,101526.85
2019-02-06T09:09:35.107Z,101523.77
2019-02-06T09:12:05.640Z,101524.61
2019-02-06T09:14:35.156Z,101530.62
2019-02-06T09:17:04.870Z,101539.17
2019-02-06T09:19:34.487Z,101541.27
2019-02-06T09:22:05.653Z,101534.73
2019-02-06T09:24:35.190Z,101541.61
2019-02-06T09:27:05.074Z,101537.30
2019-02-06T09:29:35.130Z,101536.80
2019-02-06T09:32:06.108Z,101542.34
2019-02-06T09:34:36.216Z,101543.18
2019-02-06T09:37:06.007Z,101537.96
2019-02-06T09:39:35.541Z,101545.67
2019-02-06T09:42:05.136Z,101548.63
2019-02-06T09:44:34.970Z,101553.31
2019-02-06T09:47:04.533Z,101550.22
2019-02-06T09:49:34.067Z,101547.16
2019-02-06T09:52:03.646Z,101547.52
2019-02-06T09:54:33.442Z,101546.58
2019-02-06T09:57:02.990Z,101546.97
2019-02-06T09:59:32.525Z,101547.30
2019-02-06T10:02:02.078Z,101553.62
2019-02-06T10:04:31.628Z,101546.59
2019-02-06T10:07:04.287Z,101548.67
2019-02-06T10:09:33.808Z,101553.30
2019-02-06T10:12:06.043Z,101550.16
2019-02-06T10:14:35.865Z,101545.70
2019-02-06T10:17:05.426Z,101545.98
2019-02-06T10:19:34.976Z,101540.31
2019-02-06T10:22:04.522Z,101548.32
2019-02-06T10:24:34.146Z,101542.59
2019-02-06T10:27:03.678Z,101543.33
2019-02-06T10:29:33.511Z,101544.56
2019-02-06T10:32:04.156Z,101539.27
2019-02-06T10:34:33.699Z,101543.50
2019-02-06T10:37:03.572Z,101543.03
2019-02-06T10:39:34.851Z,101543.83
2019-02-06T10:42:04.941Z,101540.12
2019-02-06T10:44:36.139Z,101537.31
2019-02-06T10:47:05.895Z,101542.02
2019-02-06T10:49:36.790Z,101535.35
2019-02-06T10:52:06.407Z,101536.13
2019-02-06T10:54:36.513Z,101530.43
2019-02-06T10:57:06.104Z,101525.98
2019-02-06T10:59:35.714Z,101524.61
2019-02-06T11:02:05.578Z,101523.20
2019-02-06T11:04:35.213Z,101522.27
2019-02-06T11:07:08.214Z,101517.94
2019-02-06T11:09:46.090Z,101519.57
2019-02-06T11:12:08.880Z,101519.01
2019-02-06T11:14:38.513Z,101516.72
2019-02-06T11:17:08.119Z,101516.19
2019-02-06T11:19:37.701Z,101511.30
2019-02-06T11:22:07.206Z,101509.94
2019-02-06T11:24:36.789Z,101501.20
2019-02-06T11:27:06.653Z,101494.56
2019-02-06T11:29:36.205Z,101491.78
2019-02-06T11:32:10.106Z,101485.20
2019-02-06T11:34:39.716Z,101489.05
2019-02-06T11:37:09.814Z,101482.95
2019-02-06T11:39:39.354Z,101484.06
2019-02-06T11:42:09.236Z,101480.47
2019-02-06T11:44:38.743Z,101474.02
2019-02-06T11:47:10.004Z,101468.75
2019-02-06T11:49:41.221Z,101466.81
2019-02-06T11:52:15.092Z,101466.81
2019-02-06T11:54:44.949Z,101472.81
2019-02-06T11:57:14.502Z,101462.32
2019-02-06T11:59:45.837Z,101463.27
2019-02-06T12:02:18.446Z,101456.17
2019-02-06T12:04:47.976Z,101450.52
2019-02-06T12:07:17.864Z,101452.14
2019-02-06T12:09:47.405Z,101443.81
2019-02-06T12:12:17.034Z,101448.58
2019-02-06T12:14:48.804Z,101444.15
2019-02-06T12:17:20.124Z,101438.31
2019-02-06T12:19:49.785Z,101437.16
2019-02-06T12:22:19.591Z,101431.56
2019-02-06T12:24:49.532Z,101431.88
2019-02-06T12:27:19.114Z,101428.41
2019-02-06T12:29:48.668Z,101427.03
2019-02-06T12:32:18.214Z,101421.43
2019-02-06T12:34:48.036Z,101414.36
2019-02-06T12:37:17.935Z,101413.03
2019-02-06T12:39:47.503Z,101410.59
2019-02-06T12:42:17.061Z,101390.11
2019-02-06T12:44:46.611Z,101396.83
2019-02-06T12:47:16.140Z,101387.20
2019-02-06T12:49:45.667Z,101389.14
2019-02-06T12:52:15.247Z,101388.17
2019-02-06T12:54:44.804Z,101385.79
2019-02-06T12:57:15.002Z,101380.91
2019-02-06T12:59:44.596Z,101379.97
2019-02-06T13:02:14.178Z,101389.53
2019-02-06T13:04:43.728Z,101384.91
2019-02-06T13:07:13.297Z,101392.58
2019-02-06T13:09:42.906Z,101389.86
2019-02-06T13:12:12.472Z,101387.64
2019-02-06T13:14:41.999Z,101382.84
2019-02-06T13:17:11.530Z,101385.53
2019-02-06T13:19:41.061Z,101379.10
2019-02-06T13:22:12.715Z,101381.80
2019-02-06T13:24:42.321Z,101382.98
2019-02-06T13:27:11.927Z,101372.28
2019-02-06T13:29:41.468Z,101373.17
2019-02-06T13:32:11.034Z,101364.13
2019-02-06T13:34:40.660Z,101367.59
2019-02-06T13:37:10.331Z,101362.83
2019-02-06T13:39:39.906Z,101355.09
2019-02-06T13:42:09.826Z,101344.22
2019-02-06T13:44:41.628Z,101347.98
2019-02-06T13:47:10.931Z,101339.20
2019-02-06T13:49:40.505Z,101336.26
2019-02-06T13:52:12.703Z,101336.97
2019-02-06T13:54:42.756Z,101340.77
2019-02-06T13:57:12.416Z,101329.56
2019-02-06T13:59:41.943Z,101327.31
2019-02-06T14:02:11.492Z,101326.28
2019-02-06T14:04:41.022Z,101325.39
2019-02-06T14:07:10.680Z,101321.39
2019-02-06T14:09:40.369Z,101315.23
2019-02-06T14:12:14.385Z,101314.72
2019-02-06T14:14:44.115Z,101309.06
2019-02-06T14:17:13.783Z,101307.16
2019-02-06T14:19:43.331Z,101302.03
2019-02-06T14:22:13.228Z,101300.31
2019-02-06T14:24:45.610Z,101304.29
2019-02-06T14:27:23.016Z,101303.05
2019-02-06T14:30:32.070Z,101304.89
2019-02-06T14:33:09.048Z,101302.63
2019-02-06T14:36:16.365Z,101299.49
2019-02-06T14:39:21.730Z,101296.53
2019-02-06T14:42:10.797Z,101285.97
2019-02-06T14:44:59.582Z,101284.98
2019-02-06T14:47:53.009Z,101281.57
2019-02-06T14:51:04.829Z,101273.16
2019-02-06T14:53:39.078Z,101267.43
2019-02-06T14:56:34.158Z,101254.13
2019-02-06T14:59:32.543Z,101256.23
2019-02-06T15:02:40.853Z,101251.08
2019-02-06T15:05:26.618Z,101250.98
2019-02-06T15:08:12.555Z,101244.91
2019-02-06T15:11:02.332Z,101239.73
2019-02-06T15:13:42.129Z,101243.55
2019-02-06T15:16:28.331Z,101239.34
2019-02-06T15:19:06.690Z,101240.14
2019-02-06T15:22:01.632Z,101237.00
2019-02-06T15:24:47.773Z,101242.34
2019-02-06T15:27:33.671Z,101243.89
2019-02-06T15:30:27.255Z,101245.68
2019-02-06T15:33:17.749Z,101240.34
2019-02-06T15:36:14.012Z,101232.77
2019-02-06T15:38:56.780Z,101231.97
2019-02-06T15:41:33.762Z,101233.08
2019-02-06T15:44:13.701Z,101227.42
2019-02-06T15:46:59.713Z,101223.45
2019-02-06T15:49:34.269Z,101213.46
2019-02-06T15:52:23.335Z,101214.86
2019-02-06T15:55:20.522Z,101218.39
2019-02-06T15:58:14.273Z,101214.06
2019-02-06T16:00:52.592Z,101211.02
2019-02-06T16:03:31.212Z,101210.60
2019-02-06T16:06:12.861Z,101208.44
2019-02-06T16:09:08.156Z,101209.45
2019-02-06T16:11:45.074Z,101199.06
2019-02-06T16:14:22.283Z,101192.28
2019-02-06T16:17:26.285Z,101186.69
2019-02-06T16:20:19.579Z,101190.34
2019-02-06T16:23:08.306Z,101177.47
2019-02-06T16:25:54.410Z,101187.98
2019-02-06T16:28:40.679Z,101182.51
2019-02-06T16:31:32.627Z,101179.55
2019-02-06T16:34:15.492Z,101180.09
2019-02-06T16:37:07.662Z,101173.66
2019-02-06T16:39:50.401Z,101165.52
2019-02-06T16:42:33.645Z,101163.48
2019-02-06T16:45:35.028Z,101164.02
2019-02-06T16:48:32.114Z,101159.91
2019-02-06T16:51:09.136Z,101150.97
2019-02-06T16:53:45.645Z,101147.25
2019-02-06T16:56:34.738Z,101152.27
2019-02-06T16:59:26.639Z,101154.11
2019-02-06T17:02:06.550Z,101159.11
2019-02-06T17:05:00.195Z,101155.55
2019-02-06T17:07:49.271Z,101149.48
2019-02-06T17:10:37.732Z,101153.39
2019-02-06T17:13:17.828Z,101156.56
2019-02-06T17:16:15.170Z,101161.85
2019-02-06T17:19:00.539Z,101158.83
2019-02-06T17:21:49.233Z,101159.16
2019-02-06T17:24:43.651Z,101154.48
2019-02-06T17:27:42.831Z,101150.05
2019-02-06T17:30:25.771Z,101151.38
2019-02-06T17:33:26.870Z,101154.06
2019-02-06T17:36:01.459Z,101155.73
2019-02-06T17:39:24.552Z,101147.92
2019-02-06T17:41:58.873Z,101144.57
2019-02-06T17:44:55.239Z,101142.41
2019-02-06T17:47:38.542Z,101144.95
2019-02-06T17:50:24.579Z,101140.78
2019-02-06T17:53:10.732Z,101142.00
2019-02-06T17:55:40.352Z,101136.79
2019-02-06T17:58:14.850Z,101126.88
2019-02-06T18:00:48.815Z,101127.38
2019-02-06T18:03:18.923Z,101126.16
2019-02-06T18:05:49.366Z,101121.84
2019-02-06T18:08:20.199Z,101117.56
2019-02-06T18:10:49.913Z,101117.14
2019-02-06T18:13:19.468Z,101109.92
2019-02-06T18:15:49.022Z,101112.98
2019-02-06T18:18:19.042Z,101112.97
2019-02-06T18:20:48.721Z,101114.27
2019-02-06T18:23:18.313Z,101112.97
2019-02-06T18:25:47.863Z,101112.11
2019-02-06T18:28:17.918Z,101118.31
2019-02-06T18:30:47.493Z,101115.15
2019-02-06T18:33:18.889Z,101110.36
2019-02-06T18:35:49.119Z,101109.50
2019-02-06T18:38:18.713Z,101099.53
2019-02-06T18:40:49.447Z,101107.31
2019-02-06T18:43:19.110Z,101102.50
2019-02-06T18:45:48.813Z,101100.31
2019-02-06T18:48:21.235Z,101106.48
2019-02-06T18:50:52.142Z,101094.48
2019-02-06T18:53:22.671Z,101085.45
2019-02-06T18:55:52.234Z,101086.67
2019-02-06T18:58:21.883Z,101085.42
2019-02-06T19:00:52.053Z,101089.72
2019-02-06T19:03:26.999Z,101086.25
2019-02-06T19:05:56.720Z,101085.03
2019-02-06T19:08:29.621Z,101078.00
2019-02-06T19:10:59.224Z,101076.26
2019-02-06T19:13:29.031Z,101080.58
2019-02-06T19:15:58.636Z,101086.25
2019-02-06T19:18:28.686Z,101075.54
2019-02-06T19:21:00.579Z,101062.03
2019-02-06T19:23:30.161Z,101076.32
2019-02-06T19:25:59.882Z,101065.55
2019-02-06T19:28:29.475Z,101070.64
2019-02-06T19:30:59.099Z,101049.80
2019-02-06T19:33:28.662Z,101047.63
2019-02-06T19:35:58.188Z,101047.58
2019-02-06T19:38:27.734Z,101042.84
2019-02-06T19:43:31.015Z,101037.67
2019-02-06T19:46:00.555Z,101036.02
2019-02-06T19:48:30.725Z,101037.28
2019-02-06T19:51:00.590Z,101028.71
2019-02-06T19:53:30.137Z,101033.55
2019-02-06T19:55:59.698Z,101031.30
2019-02-06T19:58:29.489Z,101025.66
2019-02-06T20:00:59.977Z,101026.02
2019-02-06T20:03:31.227Z,101025.58
2019-02-06T20:06:00.771Z,101039.47
2019-02-06T20:08:30.303Z,101033.41
2019-02-06T20:10:59.892Z,101038.11
2019-02-06T20:13:31.223Z,101035.06
2019-02-06T20:16:00.794Z,101020.40
2019-02-06T20:18:30.327Z,101023.05
2019-02-06T20:20:59.938Z,101022.59
2019-02-06T20:23:31.114Z,101015.11
2019-02-06T20:26:00.691Z,101009.39
2019-02-06T20:28:30.297Z,101002.98
2019-02-06T20:31:00.831Z,101006.50
2019-02-06T20:33:30.440Z,101001.73
2019-02-06T20:36:00.005Z,100998.78
2019-02-06T20:38:30.082Z,101000.09
2019-02-06T20:41:00.336Z,100994.44
2019-02-06T20:43:29.943Z,100993.58
2019-02-06T20:45:59.472Z,100991.36
2019-02-06T20:48:29.029Z,100991.84
2019-02-06T20:50:58.943Z,100987.94
2019-02-06T20:53:31.915Z,100992.69
2019-02-06T20:56:01.427Z,100989.23
2019-02-06T20:58:31.878Z,100984.02
2019-02-06T21:01:01.422Z,100981.13
2019-02-06T21:03:32.508Z,100976.31
2019-02-06T21:06:02.184Z,100976.41
2019-02-06T21:08:31.806Z,100979.06
2019-02-06T21:11:01.362Z,100973.09
2019-02-06T21:13:33.224Z,100968.30
2019-02-06T21:16:02.169Z,100956.59
2019-02-06T21:18:31.720Z,100955.39
2019-02-06T21:21:05.749Z,100954.15
2019-02-06T21:23:35.280Z,100959.02
2019-02-06T21:26:04.908Z,100957.19
2019-02-06T21:28:34.433Z,100956.33
2019-02-06T21:31:04.393Z,100950.80
2019-02-06T21:33:33.929Z,100947.77
2019-02-06T21:36:03.734Z,100945.22
2019-02-06T21:38:33.286Z,100944.72
2019-02-06T21:41:02.821Z,100936.47
2019-02-06T21:43:32.355Z,100934.38
2019-02-06T21:46:03.647Z,100930.50
2019-02-06T21:48:33.164Z,100934.38
2019-02-06T21:51:02.843Z,100936.85
2019-02-06T21:53:34.751Z,100931.62
2019-02-06T21:56:03.683Z,100927.88
2019-02-06T21:58:33.452Z,100928.76
2019-02-06T22:01:04.616Z,100924.35
2019-02-06T22:03:34.199Z,100922.96
2019-02-06T22:06:03.744Z,100919.69
2019-02-06T22:08:33.304Z,100916.96
2019-02-06T22:11:02.899Z,100918.70
2019-02-06T22:13:32.805Z,100912.97
2019-02-06T22:16:02.378Z,100914.30
2019-02-06T22:18:31.909Z,100908.63
2019-02-06T22:21:01.454Z,100908.97
2019-02-06T22:23:31.030Z,100903.70
2019-02-06T22:26:00.592Z,100901.17
2019-02-06T22:28:30.426Z,100899.02
2019-02-06T22:30:59.999Z,100898.57
2019-02-06T22:33:29.728Z,100897.65
2019-02-06T22:36:01.224Z,100897.14
2019-02-06T22:38:31.089Z,100892.06
2019-02-06T22:41:00.637Z,100890.29
2019-02-06T22:43:30.535Z,100890.77
2019-02-06T22:46:00.210Z,100886.89
2019-02-06T22:48:29.869Z,100887.34
2019-02-06T22:50:59.449Z,100888.16
2019-02-06T22:53:28.977Z,100881.66
2019-02-06T22:55:58.552Z,100877.44
2019-02-06T22:58:31.502Z,100883.53
2019-02-06T23:01:13.907Z,100880.64
2019-02-06T23:03:43.532Z,100877.15
2019-02-06T23:06:13.626Z,100870.27
2019-02-06T23:08:43.449Z,100864.68
2019-02-06T23:11:13.034Z,100855.16
2019-02-06T23:13:42.657Z,100851.67
2019-02-06T23:16:12.370Z,100854.72
2019-02-06T23:18:43.772Z,100855.23
2019-02-06T23:21:13.263Z,100851.33
2019-02-06T23:23:42.802Z,100852.22
2019-02-06T23:26:12.361Z,100847.42
2019-02-06T23:28:41.988Z,100836.23
2019-02-06T23:31:11.630Z,100832.36
2019-02-06T23:33:41.169Z,100828.90
2019-02-06T23:36:12.711Z,100821.19
2019-02-06T23:38:42.260Z,100820.91
2019-02-06T23:41:11.799Z,100816.56
2019-02-06T23:43:41.322Z,100813.55
2019-02-06T23:46:11.025Z,100808.44
2019-02-06T23:48:40.564Z,100801.08
2019-02-06T23:51:10.627Z,100793.37
2019-02-06T23:53:40.191Z,100788.24
2019-02-06T23:56:11.118Z,100791.73
2019-02-06T23:58:40.689Z,100780.19
